Time;durP1;ratioP1;P1;durP2;ratioP2;P2;SDS_P1;SDS_P2;PMS_P1;PMS_P2;Temp;Humidity;BMP_temperature;BMP_pressure;BME280_temperature;BME280_humidity;BME280_pressure;Samples;Min_cycle;Max_cycle;Signal;HPM_P1;HPM_P2
2023/10/20 00:00:07;;;;;;;9.50;3.23;;;;;;;13.90;63.02;99485.89;126365;1099;104190;-80
2023/10/20 00:02:59;;;;;;;7.93;3.43;;;;;;;13.88;62.59;99485.88;124800;1099;119907;-80
2023/10/20 00:05:30;;;;;;;7.97;3.60;;;;;;;13.88;62.91;99485.88;124698;1099;101834;-80
2023/10/20 00:08:03;;;;;;;7.07;3.40;;;;;;;13.88;62.96;99485.88;126005;1099;101906;-81
2023/10/20 00:10:36;;;;;;;8.13;3.30;;;;;;;13.88;63.96;99495.55;124797;1099;101861;-80
2023/10/20 00:13:09;;;;;;;8.50;3.47;;;;;;;13.87;62.98;99497.32;125359;1099;102121;-81
2023/10/20 00:15:40;;;;;;;6.93;3.23;;;;;;;13.87;64.13;99494.69;125443;1099;104201;-80
2023/10/20 00:18:50;;;;;;;8.58;2.98;;;;;;;13.88;63.90;99499.06;125389;1099;104089;-80
2023/10/20 00:21:21;;;;;;;8.83;3.30;;;;;;;13.88;64.03;99490.28;125409;1099;101827;-83
2023/10/20 00:23:53;;;;;;;6.33;3.17;;;;;;;13.88;63.26;99482.37;125400;1098;104338;-80
2023/10/20 00:26:25;;;;;;;9.73;3.50;;;;;;;13.88;63.72;99470.05;124790;1099;104338;-81
2023/10/20 00:28:57;;;;;;;4.60;3.43;;;;;;;13.88;63.73;99463.91;125434;1099;104289;-81
2023/10/20 00:31:29;;;;;;;6.77;3.33;;;;;;;13.86;63.78;99455.99;125259;1099;104118;-79
2023/10/20 00:34:01;;;;;;;5.87;3.20;;;;;;;13.86;64.29;99447.21;126327;1098;101858;-80
2023/10/20 00:36:32;;;;;;;8.07;3.30;;;;;;;13.84;64.45;99442.80;125447;1099;104169;-81
2023/10/20 00:39:04;;;;;;;6.23;3.30;;;;;;;13.84;64.56;99436.66;125364;1099;104166;-82
2023/10/20 00:41:36;;;;;;;9.17;3.57;;;;;;;13.83;64.02;99429.61;125403;1099;101909;-80
2023/10/20 00:44:07;;;;;;;7.60;3.27;;;;;;;13.80;64.01;99425.19;125397;1099;104181;-80
2023/10/20 00:46:39;;;;;;;9.67;4.20;;;;;;;13.82;65.15;99422.56;125390;1099;102093;-80
2023/10/20 00:49:11;;;;;;;8.93;3.37;;;;;;;13.82;64.48;99427.83;125381;1099;104374;-81
2023/10/20 00:51:46;;;;;;;9.83;3.80;;;;;;;13.81;65.32;99418.18;125474;1099;102016;-80
2023/10/20 00:54:18;;;;;;;8.17;3.40;;;;;;;13.80;65.27;99406.73;125255;1099;104303;-81
2023/10/20 00:56:49;;;;;;;7.27;3.50;;;;;;;13.81;64.71;99415.55;125477;1098;104364;-81
2023/10/20 00:59:21;;;;;;;9.27;3.60;;;;;;;13.80;64.59;99404.09;125438;1099;104269;-79
2023/10/20 01:01:54;;;;;;;8.80;3.33;;;;;;;13.81;65.25;99399.72;125377;1099;104210;-81
2023/10/20 01:04:26;;;;;;;6.50;3.50;;;;;;;13.81;64.87;99402.36;125467;1099;101910;-81
2023/10/20 01:06:57;;;;;;;8.60;3.47;;;;;;;13.80;65.48;99417.28;125515;1099;102238;-81
2023/10/20 01:09:30;;;;;;;9.47;3.90;;;;;;;13.80;65.09;99412.00;125409;1099;104319;-80
2023/10/20 01:12:03;;;;;;;8.87;3.70;;;;;;;13.80;65.90;99419.05;125282;1099;104172;-80
2023/10/20 01:14:35;;;;;;;6.23;3.20;;;;;;;13.81;65.74;99415.55;124751;1099;104210;-82
2023/10/20 01:17:09;;;;;;;6.80;3.80;;;;;;;13.81;65.49;99420.81;124816;1099;102809;-81
2023/10/20 01:19:41;;;;;;;5.73;3.43;;;;;;;13.81;66.28;99416.41;124696;1102;104243;-81
2023/10/20 01:22:12;;;;;;;11.00;3.53;;;;;;;13.81;65.50;99424.33;124882;1099;104172;-81
2023/10/20 01:24:44;;;;;;;6.20;3.40;;;;;;;13.81;66.11;99419.05;126302;1098;104245;-81
2023/10/20 01:27:16;;;;;;;5.60;3.53;;;;;;;13.83;65.96;99421.70;125445;1098;104214;-83
2023/10/20 01:29:48;;;;;;;8.97;3.87;;;;;;;13.82;65.90;99420.83;124911;1099;104329;-81
2023/10/20 01:32:22;;;;;;;8.27;3.40;;;;;;;13.81;66.00;99412.91;125366;1099;102181;-81
2023/10/20 01:34:51;;;;;;;;;;;;;;;13.79;65.50;99406.72;125392;1099;107088;-81
2023/10/20 01:37:22;;;;;;;8.90;4.20;;;;;;;13.78;66.40;99404.98;124801;1098;104268;-81
2023/10/20 01:39:55;;;;;;;9.47;3.83;;;;;;;13.75;66.80;99400.56;124804;1099;104179;-80
2023/10/20 01:42:26;;;;;;;9.27;3.90;;;;;;;13.75;66.65;99399.69;124789;1099;101823;-80
2023/10/20 01:44:59;;;;;;;8.83;3.90;;;;;;;13.73;66.95;99396.14;125365;1099;118695;-81
2023/10/20 01:47:30;;;;;;;10.73;3.67;;;;;;;13.75;66.43;99399.69;125434;1099;101952;-81
2023/10/20 01:50:03;;;;;;;7.03;4.00;;;;;;;13.75;66.44;99407.60;125441;1099;104197;-81
2023/10/20 01:52:34;;;;;;;10.53;4.00;;;;;;;13.74;66.77;99398.79;125414;1099;104281;-81
2023/10/20 01:55:06;;;;;;;8.10;3.77;;;;;;;13.75;66.29;99399.69;125378;1099;101839;-81
2023/10/20 01:57:38;;;;;;;8.43;3.70;;;;;;;13.77;66.08;99392.66;125405;1099;104253;-80
2023/10/20 02:00:13;;;;;;;7.63;3.90;;;;;;;13.77;66.00;99392.66;124875;1099;102182;-81
2023/10/20 02:02:45;;;;;;;9.73;4.03;;;;;;;13.78;66.93;99391.80;125534;1099;104066;-80
2023/10/20 02:05:16;;;;;;;7.80;3.90;;;;;;;13.78;67.03;99392.67;125347;1099;104281;-80
2023/10/20 02:07:48;;;;;;;8.50;4.23;;;;;;;13.81;66.55;99392.69;125449;1099;104249;-80
2023/10/20 02:10:19;;;;;;;9.63;4.80;;;;;;;13.84;66.45;99397.97;125365;1099;102093;-80
2023/10/20 02:12:50;;;;;;;8.33;4.27;;;;;;;13.86;66.78;99390.06;125293;1099;104201;-80
2023/10/20 02:15:22;;;;;;;7.77;4.10;;;;;;;13.88;66.21;99390.08;125420;1099;104198;-81
2023/10/20 02:17:54;;;;;;;12.37;4.37;;;;;;;13.88;66.57;99385.67;125314;1099;101932;-80
2023/10/20 02:20:27;;;;;;;11.05;3.98;;;;;;;13.91;66.87;99382.18;125427;1099;102061;-81
2023/10/20 02:22:59;;;;;;;7.53;3.87;;;;;;;13.91;67.31;99374.27;124877;1099;104267;-80
2023/10/20 02:25:32;;;;;;;13.63;4.50;;;;;;;13.90;67.23;99365.48;125457;1099;104166;-82
2023/10/20 02:28:04;;;;;;;7.13;4.07;;;;;;;13.93;66.67;99369.88;125360;1099;104166;-81
2023/10/20 02:30:35;;;;;;;10.00;4.37;;;;;;;13.94;67.07;99363.73;125396;1099;101781;-80
2023/10/20 02:33:07;;;;;;;8.33;4.50;;;;;;;13.95;66.96;99371.66;125355;1099;104239;-81
2023/10/20 02:35:42;;;;;;;8.17;4.10;;;;;;;13.97;67.17;99375.16;125440;1099;104191;-81
2023/10/20 02:38:13;;;;;;;10.03;4.10;;;;;;;13.98;66.96;99362.88;125286;1099;104198;-80
2023/10/20 02:40:52;;;;;;;7.57;4.20;;;;;;;14.01;66.70;99363.77;125432;1099;101874;-81
2023/10/20 02:43:25;;;;;;;7.57;4.00;;;;;;;14.01;66.96;99371.67;125396;1099;104166;-80
2023/10/20 02:45:57;;;;;;;7.93;3.90;;;;;;;14.04;66.99;99386.64;125493;1099;101899;-80
2023/10/20 02:48:29;;;;;;;7.50;3.90;;;;;;;14.06;66.93;99389.28;125568;1099;101954;-80
2023/10/20 02:51:08;;;;;;;8.20;4.27;;;;;;;14.08;67.80;99380.48;125560;1099;104226;-80
2023/10/20 02:53:40;;;;;;;8.20;4.10;;;;;;;14.08;67.39;99377.84;126138;1099;101855;-80
2023/10/20 02:56:16;;;;;;;6.37;4.13;;;;;;;14.08;67.04;99372.56;124788;1099;104143;-81
2023/10/20 02:58:48;;;;;;;11.17;4.43;;;;;;;14.09;67.40;99368.20;124877;1099;104236;-83
2023/10/20 03:01:21;;;;;;;11.97;4.63;;;;;;;14.08;67.64;99362.02;125486;1099;104169;-81
2023/10/20 03:03:52;;;;;;;6.77;4.00;;;;;;;14.09;67.95;99362.92;126322;1098;101826;-81
2023/10/20 03:06:24;;;;;;;7.13;3.90;;;;;;;14.08;67.05;99361.14;125398;1099;101810;-83
2023/10/20 03:08:55;;;;;;;8.47;4.27;;;;;;;14.09;67.36;99350.60;125402;1099;104204;-82
2023/10/20 03:11:26;;;;;;;8.73;4.20;;;;;;;14.10;67.01;99344.46;125498;1098;104249;-80
2023/10/20 03:13:58;;;;;;;9.37;4.43;;;;;;;14.11;67.76;99345.33;125473;1099;104176;-81
2023/10/20 03:16:29;;;;;;;7.20;3.97;;;;;;;14.14;67.15;99356.77;124798;1102;101913;-82
2023/10/20 03:19:01;;;;;;;6.70;4.25;;;;;;;14.16;67.78;99354.13;125460;1099;104204;-82
2023/10/20 03:21:33;;;;;;;8.63;4.43;;;;;;;14.17;68.03;99345.35;125456;1099;104338;-82
2023/10/20 03:24:05;;;;;;;8.20;4.30;;;;;;;14.17;67.36;99342.71;126434;1098;101884;-82
2023/10/20 03:26:37;;;;;;;12.03;4.50;;;;;;;14.18;67.31;99340.08;124965;1100;101976;-83
2023/10/20 03:29:09;;;;;;;9.37;3.97;;;;;;;14.18;67.28;99339.20;125775;1098;101922;-85
2023/10/20 03:31:44;;;;;;;8.67;4.60;;;;;;;14.20;67.48;99334.80;125980;1099;101900;-88
2023/10/20 03:34:15;;;;;;;9.83;4.43;;;;;;;14.21;67.89;99347.13;127167;1098;101794;-90
2023/10/20 03:36:47;;;;;;;11.83;4.50;;;;;;;14.23;67.67;99344.46;125312;1099;102039;-90
2023/10/20 03:39:20;;;;;;;8.57;4.50;;;;;;;14.23;67.15;99332.17;125916;1099;104173;-90
2023/10/20 03:41:52;;;;;;;6.50;3.90;;;;;;;14.23;67.26;99332.17;125762;1099;104271;-87
2023/10/20 03:44:24;;;;;;;10.10;4.57;;;;;;;14.22;67.12;99317.21;126717;1098;101764;-90
2023/10/20 03:46:57;;;;;;;9.47;4.53;;;;;;;14.20;67.17;99311.06;126625;1098;101718;-88
2023/10/20 03:49:33;;;;;;;10.00;4.58;;;;;;;14.18;67.17;99318.10;126431;1098;101731;-88
2023/10/20 03:52:11;;;;;;;11.40;4.80;;;;;;;14.17;67.39;99311.05;125807;1098;104270;-89
2023/10/20 03:54:44;;;;;;;11.53;4.30;;;;;;;14.16;67.70;99314.56;125622;1099;104235;-85
2023/10/20 03:57:17;;;;;;;10.30;4.50;;;;;;;14.13;66.90;99299.63;126440;1099;102051;-86
2023/10/20 03:59:49;;;;;;;11.50;4.67;;;;;;;14.13;67.77;99296.08;125634;1099;101981;-87
2023/10/20 04:02:20;;;;;;;7.67;4.50;;;;;;;14.10;67.28;99291.70;125699;1099;102247;-88
2023/10/20 04:04:51;;;;;;;11.83;4.67;;;;;;;14.08;67.56;99289.93;125639;1099;104406;-87
2023/10/20 04:07:24;;;;;;;11.27;4.80;;;;;;;14.07;67.11;99298.70;126654;1098;101881;-86
2023/10/20 04:09:55;;;;;;;9.00;4.60;;;;;;;14.06;67.16;99284.66;125857;1098;102013;-87
2023/10/20 04:12:27;;;;;;;10.50;4.67;;;;;;;14.05;66.77;99284.64;125649;1099;101792;-83
2023/10/20 04:14:58;;;;;;;10.80;5.03;;;;;;;14.02;67.60;99277.59;125688;1099;102499;-85
2023/10/20 04:17:30;;;;;;;10.57;4.60;;;;;;;14.00;67.40;99261.77;125714;1099;101927;-87
2023/10/20 04:20:02;;;;;;;8.70;4.63;;;;;;;13.99;67.09;99265.30;125821;1102;102149;-85
2023/10/20 04:22:34;;;;;;;12.67;5.00;;;;;;;13.98;67.83;99281.99;127615;1098;101638;-82
2023/10/20 04:25:12;;;;;;;10.77;5.03;;;;;;;13.97;67.28;99280.22;125659;1099;104205;-82
2023/10/20 04:27:49;;;;;;;11.85;5.30;;;;;;;13.98;67.63;99296.95;126632;1098;101803;-81
2023/10/20 04:41:56;;;;;;;8.83;4.93;;;;;;;13.97;67.21;99296.05;126413;1098;102074;-83
2023/10/20 04:53:10;;;;;;;11.17;4.97;;;;;;;13.98;67.85;99302.22;126568;1099;101753;-83
2023/10/20 04:58:49;;;;;;;11.87;5.27;;;;;;;13.97;67.56;99296.05;125488;1099;104290;-83
2023/10/20 05:01:25;;;;;;;8.50;4.90;;;;;;;13.97;68.17;99296.05;126465;1098;104185;-85
2023/10/20 05:03:58;;;;;;;10.40;4.50;;;;;;;13.96;67.67;99298.68;125783;1098;104265;-87
2023/10/20 05:06:40;;;;;;;8.27;4.70;;;;;;;13.97;67.52;99298.69;125965;1098;102357;-82
2023/10/20 05:09:14;;;;;;;9.77;5.10;;;;;;;13.97;67.79;99301.32;126535;1098;101749;-81
2023/10/20 05:11:50;;;;;;;12.43;4.67;;;;;;;13.98;67.27;99287.27;126037;1099;104286;-79
2023/10/20 05:14:22;;;;;;;11.40;5.10;;;;;;;13.99;67.95;99280.23;126090;1099;102016;-84
2023/10/20 05:16:57;;;;;;;10.50;5.43;;;;;;;13.97;67.26;99280.22;126665;1098;104220;-83
2023/10/20 05:19:32;;;;;;;8.60;4.87;;;;;;;13.96;67.94;99283.76;125586;1099;111303;-81
2023/10/20 05:22:06;;;;;;;12.97;5.37;;;;;;;13.97;67.32;99298.69;125586;1099;104220;-80
2023/10/20 05:24:36;;;;;;;;;;;;;;;13.96;67.51;99296.04;126190;1098;102101;-81
2023/10/20 05:27:08;;;;;;;11.33;5.00;;;;;;;13.95;67.29;99300.45;125680;1099;104159;-81
2023/10/20 05:29:41;;;;;;;10.60;5.33;;;;;;;13.96;67.20;99299.58;125501;1099;104214;-77
2023/10/20 05:32:15;;;;;;;9.83;4.95;;;;;;;13.95;67.64;99284.63;124985;1099;102060;-77
2023/10/20 05:34:54;;;;;;;11.70;5.00;;;;;;;13.94;68.13;99284.62;125273;1099;101882;-78
2023/10/20 05:37:26;;;;;;;10.00;5.10;;;;;;;13.93;67.97;99296.94;125579;1099;103565;-77
2023/10/20 05:39:58;;;;;;;12.07;4.83;;;;;;;13.95;68.10;99303.08;126611;1098;107034;-80
2023/10/20 05:42:29;;;;;;;12.23;5.13;;;;;;;13.96;67.11;99304.86;125576;1102;103273;-81
2023/10/20 05:45:09;;;;;;;9.20;5.10;;;;;;;13.98;68.04;99304.86;126395;1098;101818;-78
2023/10/20 05:47:43;;;;;;;9.07;4.80;;;;;;;13.99;67.24;99296.05;126763;1098;103005;-79
2023/10/20 05:50:14;;;;;;;10.05;4.83;;;;;;;14.00;67.37;99296.05;126534;1098;118654;-82
2023/10/20 05:52:48;;;;;;;11.20;4.67;;;;;;;14.02;67.35;99296.96;126511;1098;101970;-82
2023/10/20 05:55:19;;;;;;;12.50;4.83;;;;;;;14.03;67.10;99298.70;125034;1099;104274;-84
2023/10/20 05:57:51;;;;;;;12.27;5.23;;;;;;;14.07;67.90;99307.52;126545;1099;101823;-81
2023/10/20 06:00:25;;;;;;;11.50;4.97;;;;;;;14.11;67.76;99311.91;126458;1098;101978;-84
2023/10/20 06:03:02;;;;;;;11.93;5.20;;;;;;;14.20;67.17;99309.30;125684;1099;104201;-84
2023/10/20 06:05:39;;;;;;;11.40;5.03;;;;;;;14.31;67.28;99311.95;126194;1099;102215;-78
2023/10/20 06:08:11;;;;;;;12.00;5.27;;;;;;;14.45;67.31;99301.41;125662;1099;102170;-80
2023/10/20 06:10:44;;;;;;;12.50;4.90;;;;;;;14.59;68.17;99304.06;124963;1099;110889;-82
2023/10/20 06:13:18;;;;;;;11.77;4.87;;;;;;;14.74;67.34;99290.02;126179;1099;102009;-82
2023/10/20 06:15:50;;;;;;;;;;;;;;;14.86;67.12;99284.70;126602;1098;101812;-79
2023/10/20 06:18:21;;;;;;;11.60;4.93;;;;;;;14.98;67.97;99290.88;126453;1098;101679;-80
2023/10/20 06:20:55;;;;;;;12.70;5.30;;;;;;;15.10;67.03;99289.08;125920;1099;104060;-87
2023/10/20 06:23:27;;;;;;;12.90;4.93;;;;;;;15.24;67.58;99288.19;125633;1099;104709;-85
2023/10/20 06:25:58;;;;;;;8.83;4.80;;;;;;;15.40;67.81;99291.66;125883;1099;104172;-82
2023/10/20 06:28:30;;;;;;;12.87;5.40;;;;;;;15.53;67.59;99282.77;125760;1098;102124;-80
2023/10/20 06:31:27;;;;;;;11.50;5.20;;;;;;;15.66;66.86;99280.08;126818;1098;102086;-83
2023/10/20 06:34:00;;;;;;;10.30;4.77;;;;;;;15.76;66.54;99287.97;126635;1098;104163;-83
2023/10/20 06:36:35;;;;;;;10.82;5.08;;;;;;;15.81;66.65;99288.84;127455;1098;101792;-83
2023/10/20 06:39:13;;;;;;;9.83;5.33;;;;;;;15.87;66.48;99289.73;125861;1098;104232;-82
2023/10/20 06:41:44;;;;;;;13.23;5.20;;;;;;;15.90;65.98;99284.42;126650;1098;101972;-87
2023/10/20 06:44:18;;;;;;;11.25;5.45;;;;;;;15.89;65.86;99280.00;125687;1099;101849;-79
2023/10/20 06:46:56;;;;;;;14.23;5.50;;;;;;;15.91;66.40;99286.16;125229;1098;101835;-85
2023/10/20 06:49:29;;;;;;;8.73;4.33;;;;;;;15.94;65.89;99283.49;125377;1099;102019;-79
2023/10/20 06:52:07;;;;;;;8.40;5.00;;;;;;;15.96;65.94;99274.67;126961;1099;101991;-78
2023/10/20 06:54:41;;;;;;;7.77;4.60;;;;;;;16.05;65.66;99280.79;127488;1098;101916;-80
2023/10/20 06:57:14;;;;;;;13.63;5.20;;;;;;;16.15;65.90;99278.08;126281;1099;101854;-88
2023/10/20 06:59:46;;;;;;;12.90;4.80;;;;;;;16.26;65.15;99261.25;126923;1098;101868;-85
2023/10/20 07:02:18;;;;;;;13.43;4.70;;;;;;;16.44;65.66;99268.16;126299;1099;101824;-81
2023/10/20 07:04:50;;;;;;;;;;;;;;;16.57;65.43;99269.83;125292;1099;101990;-81
2023/10/20 07:10:23;;;;;;;12.90;5.07;;;;;;;16.81;64.48;99265.20;125618;1099;102300;-83
2023/10/20 07:13:14;;;;;;;11.30;5.37;;;;;;;16.87;64.00;99252.80;125273;1099;104176;-85
2023/10/20 07:16:00;;;;;;;13.40;5.17;;;;;;;16.97;63.96;99250.95;125484;1099;104105;-89
2023/10/20 07:18:32;;;;;;;12.78;5.80;;;;;;;17.03;63.57;99242.05;126096;1098;104211;-75
2023/10/20 07:21:04;;;;;;;12.37;5.50;;;;;;;17.14;63.65;99249.88;124817;1099;104360;-81
2023/10/20 07:23:35;;;;;;;10.90;5.00;;;;;;;17.25;63.21;99246.23;125523;1099;101877;-81
2023/10/20 07:26:08;;;;;;;12.13;5.07;;;;;;;17.40;63.45;99246.94;125058;1099;102341;-76
2023/10/20 07:28:39;;;;;;;9.13;4.67;;;;;;;17.54;63.38;99241.46;125448;1099;104242;-78
2023/10/20 07:31:27;;;;;;;11.00;5.17;;;;;;;17.69;63.08;99240.39;125279;1099;104366;-79
2023/10/20 07:33:59;;;;;;;11.93;5.03;;;;;;;17.76;62.81;99240.30;126858;1098;102755;-84
2023/10/20 07:36:38;;;;;;;9.87;4.77;;;;;;;17.81;62.31;99237.58;126225;1099;101937;-80
2023/10/20 07:42:45;;;;;;;9.00;4.90;;;;;;;18.03;62.18;99246.13;125983;1099;111289;-83
2023/10/20 07:45:21;;;;;;;21.40;5.30;;;;;;;18.14;61.73;99249.50;126046;1098;101681;-80
2023/10/20 07:48:28;;;;;;;;;;;;;;;18.29;61.92;99242.19;127090;1098;101799;-81
2023/10/20 07:51:23;;;;;;;10.17;4.67;;;;;;;18.43;61.67;99247.28;126830;1098;101626;-77
2023/10/20 07:53:57;;;;;;;10.20;4.80;;;;;;;18.52;60.79;99235.63;127451;1098;101801;-85
2023/10/20 07:56:38;;;;;;;8.93;4.43;;;;;;;18.50;60.36;99233.88;127153;1098;101683;-85
2023/10/20 07:59:11;;;;;;;36.17;6.13;;;;;;;18.47;60.27;99233.06;126226;1099;101987;-82
2023/10/20 08:01:42;;;;;;;14.05;5.00;;;;;;;18.43;60.16;99232.23;126245;1098;101902;-80
2023/10/20 08:04:14;;;;;;;8.95;4.75;;;;;;;18.42;59.73;99219.86;125574;1099;104159;-84
2023/10/20 08:06:46;;;;;;;17.63;5.13;;;;;;;18.49;59.96;99228.58;126190;1098;101798;-80
2023/10/20 08:09:19;;;;;;;11.90;5.50;;;;;;;18.58;59.61;99225.77;124945;1099;101987;-82
2023/10/20 08:11:52;;;;;;;10.90;5.57;;;;;;;18.71;59.58;99221.11;125365;1102;101805;-82
2023/10/20 08:14:26;;;;;;;13.63;5.10;;;;;;;18.82;59.76;99235.10;126569;1098;104320;-78
2023/10/20 08:17:10;;;;;;;10.43;4.83;;;;;;;18.89;59.61;99222.61;126550;1098;101942;-82
2023/10/20 08:19:46;;;;;;;10.23;4.77;;;;;;;19.12;58.56;99239.87;126549;1098;104095;-78
2023/10/20 08:22:17;;;;;;;11.13;4.60;;;;;;;19.27;58.74;99250.22;126252;1098;104245;-76
2023/10/20 08:24:49;;;;;;;11.77;5.20;;;;;;;19.43;57.72;99252.58;125079;1099;104232;-82
2023/10/20 08:27:23;;;;;;;9.27;4.47;;;;;;;19.55;58.57;99252.32;125789;1099;104200;-77
2023/10/20 08:29:56;;;;;;;11.70;4.67;;;;;;;19.69;58.24;99254.70;126101;1098;101997;-80
2023/10/20 08:32:29;;;;;;;;;;;;;;;19.86;58.15;99257.03;126146;1098;104230;-81
2023/10/20 08:35:01;;;;;;;9.40;4.40;;;;;;;19.98;57.33;99259.41;125652;1099;102085;-78
2023/10/20 08:37:34;;;;;;;11.27;4.77;;;;;;;20.06;56.39;99251.25;125667;1099;104190;-79
2023/10/20 08:40:12;;;;;;;12.43;4.50;;;;;;;20.06;56.26;99244.13;126544;1098;101931;-84
2023/10/20 08:42:43;;;;;;;17.83;5.90;;;;;;;20.06;56.26;99238.81;125835;1099;101811;-82
2023/10/20 08:45:15;;;;;;;11.73;4.10;;;;;;;20.04;56.38;99248.63;125708;1099;101774;-81
2023/10/20 08:47:49;;;;;;;10.05;4.30;;;;;;;20.01;56.45;99235.38;126711;1098;104315;-77
2023/10/20 08:50:29;;;;;;;15.13;5.00;;;;;;;19.99;56.49;99231.89;125784;1099;101774;-85
2023/10/20 08:53:07;;;;;;;11.50;5.00;;;;;;;19.99;56.04;99234.55;126148;1098;101870;-84
2023/10/20 08:55:41;;;;;;;11.43;5.23;;;;;;;20.00;55.42;99228.30;127059;1098;101723;-81
2023/10/20 08:58:20;;;;;;;9.67;4.90;;;;;;;20.08;55.83;99236.11;126568;1098;104194;-82
2023/10/20 09:00:53;;;;;;;11.20;5.80;;;;;;;20.22;55.54;99243.77;126449;1099;104172;-81
2023/10/20 09:03:28;;;;;;;13.13;4.63;;;;;;;20.29;55.00;99248.92;126803;1099;101667;-84
2023/10/20 09:06:14;;;;;;;12.07;4.60;;;;;;;20.42;55.29;99243.30;126204;1099;101973;-83
2023/10/20 09:09:08;;;;;;;8.47;4.40;;;;;;;20.57;54.91;99232.26;126149;1099;101948;-85
2023/10/20 09:11:53;;;;;;;17.90;4.93;;;;;;;20.67;54.17;99250.71;125872;1099;104181;-77
2023/10/20 09:14:28;;;;;;;12.33;4.77;;;;;;;20.73;54.28;99234.56;125781;1099;102538;-78
2023/10/20 09:17:02;;;;;;;10.40;4.47;;;;;;;20.74;54.19;99220.30;126400;1099;101836;-89
2023/10/20 09:19:37;;;;;;;14.70;4.40;;;;;;;20.74;54.35;99213.20;127349;1098;102015;-78
2023/10/20 09:22:09;;;;;;;12.80;4.60;;;;;;;20.86;53.15;99209.31;125623;1099;102225;-78
2023/10/20 09:24:51;;;;;;;13.10;4.13;;;;;;;21.00;53.60;99214.27;126049;1098;101784;-85
2023/10/20 09:27:23;;;;;;;12.17;4.47;;;;;;;21.15;53.38;99216.52;124948;1099;102396;-80
2023/10/20 09:29:58;;;;;;;12.57;4.43;;;;;;;21.27;53.21;99211.73;125510;1099;101807;-79
2023/10/20 09:32:29;;;;;;;11.00;4.53;;;;;;;21.32;53.21;99217.84;126007;1098;102090;-82
2023/10/20 09:35:01;;;;;;;11.07;4.67;;;;;;;21.44;52.81;99213.92;124919;1100;104347;-76
2023/10/20 09:37:33;;;;;;;9.93;4.30;;;;;;;21.53;53.07;99209.24;125300;1099;104057;-80
2023/10/20 09:40:10;;;;;;;9.23;4.40;;;;;;;21.66;52.79;99206.17;125669;1099;101800;-79
2023/10/20 09:42:57;;;;;;;14.00;4.33;;;;;;;21.77;52.48;99203.17;125693;1099;104169;-80
2023/10/20 09:45:33;;;;;;;7.80;4.30;;;;;;;21.88;52.95;99199.27;125135;1099;104255;-79
2023/10/20 09:48:13;;;;;;;12.23;4.73;;;;;;;21.97;52.26;99194.55;124834;1099;104339;-78
2023/10/20 09:50:48;;;;;;;9.87;4.33;;;;;;;22.10;51.87;99201.26;125758;1099;104214;-78
2023/10/20 09:53:20;;;;;;;11.77;4.93;;;;;;;22.20;52.17;99196.48;124877;1099;102080;-81
2023/10/20 09:55:52;;;;;;;12.13;4.63;;;;;;;22.29;51.83;99190.83;124842;1099;102590;-77
2023/10/20 09:58:36;;;;;;;9.97;4.43;;;;;;;22.39;51.94;99188.75;125773;1099;102228;-82
2023/10/20 10:01:06;;;;;;;;;;;;;;;22.50;51.88;99188.39;124972;1099;101937;-80
2023/10/20 10:03:50;;;;;;;11.20;4.20;;;;;;;22.59;51.41;99180.95;124891;1099;101933;-81
2023/10/20 10:06:23;;;;;;;9.58;4.28;;;;;;;22.67;51.08;99177.12;124686;1099;104217;-79
2023/10/20 10:08:55;;;;;;;10.08;4.33;;;;;;;22.69;50.70;99178.82;125035;1099;104249;-78
2023/10/20 10:11:31;;;;;;;11.63;4.50;;;;;;;22.75;50.79;99186.63;125847;1098;102297;-81
2023/10/20 10:14:06;;;;;;;8.57;4.37;;;;;;;22.84;50.49;99174.71;125667;1098;104619;-78
2023/10/20 10:16:55;;;;;;;8.23;4.10;;;;;;;22.92;50.20;99182.46;124689;1099;101876;-78
2023/10/20 10:19:30;;;;;;;13.17;4.03;;;;;;;22.98;49.37;99179.56;124693;1099;102038;-81
2023/10/20 10:22:04;;;;;;;10.08;4.58;;;;;;;23.04;49.54;99190.05;124933;1099;101797;-79
2023/10/20 10:24:39;;;;;;;8.58;4.08;;;;;;;23.04;49.41;99189.18;125369;1099;104166;-80
2023/10/20 10:27:13;;;;;;;11.53;4.27;;;;;;;23.07;49.21;99194.42;124708;1099;106953;-80
2023/10/20 10:29:58;;;;;;;12.70;4.47;;;;;;;23.11;49.27;99188.94;124984;1099;101812;-81
2023/10/20 10:32:45;;;;;;;10.33;4.37;;;;;;;23.22;49.36;99193.00;124846;1099;104169;-83
2023/10/20 10:35:20;;;;;;;9.13;3.97;;;;;;;23.37;49.04;99183.53;125466;1099;102266;-79
2023/10/20 10:37:53;;;;;;;8.80;4.53;;;;;;;23.46;48.53;99193.89;124683;1099;104230;-78
2023/10/20 10:40:26;;;;;;;15.10;4.90;;;;;;;23.58;48.01;99190.75;124716;1099;104089;-79
2023/10/20 10:42:57;;;;;;;13.60;4.50;;;;;;;23.62;48.45;99188.81;124803;1099;101871;-79
2023/10/20 10:45:31;;;;;;;13.17;4.70;;;;;;;23.61;48.46;99195.98;126335;1098;104192;-79
2023/10/20 10:48:09;;;;;;;14.90;4.70;;;;;;;23.63;48.52;99195.92;125774;1099;104255;-78
2023/10/20 10:50:43;;;;;;;17.23;4.20;;;;;;;23.63;48.13;99199.47;125316;1098;104714;-78
2023/10/20 10:53:18;;;;;;;18.77;5.33;;;;;;;23.62;47.93;99199.52;124988;1099;104255;-80
2023/10/20 10:55:49;;;;;;;9.30;4.20;;;;;;;23.62;47.82;99196.84;125344;1099;102074;-81
2023/10/20 10:58:24;;;;;;;10.47;4.23;;;;;;;23.59;47.80;99203.22;125695;1099;104179;-80
2023/10/20 11:00:56;;;;;;;9.17;4.33;;;;;;;23.55;47.65;99204.25;125340;1099;101992;-79
2023/10/20 11:03:29;;;;;;;9.60;4.03;;;;;;;23.54;47.75;99206.98;125563;1098;104217;-82
2023/10/20 11:06:03;;;;;;;13.90;4.57;;;;;;;23.55;47.32;99200.72;125339;1098;102105;-79
2023/10/20 11:08:40;;;;;;;13.47;4.37;;;;;;;23.58;47.42;99201.45;125702;1099;104057;-81
2023/10/20 11:11:15;;;;;;;;;;;;;;;23.62;47.80;99200.42;125615;1099;102025;-83
2023/10/20 11:13:47;;;;;;;10.70;4.47;;;;;;;23.63;47.16;99199.47;124966;1099;104259;-78
2023/10/20 11:16:22;;;;;;;14.27;4.90;;;;;;;23.62;47.57;99195.06;124733;1099;104179;-83
2023/10/20 11:18:54;;;;;;;14.40;4.73;;;;;;;23.66;47.46;99211.88;125993;1098;101786;-80
2023/10/20 11:21:34;;;;;;;17.80;4.73;;;;;;;23.69;47.12;99191.20;125203;1099;102255;-78
2023/10/20 11:24:08;;;;;;;12.90;4.57;;;;;;;23.73;46.72;99180.37;124666;1099;102093;-78
2023/10/20 11:26:40;;;;;;;15.75;5.00;;;;;;;23.78;47.43;99181.05;124784;1099;104208;-77
2023/10/20 11:29:14;;;;;;;37.30;6.30;;;;;;;23.79;47.13;99180.98;125286;1099;102649;-77
2023/10/20 11:31:47;;;;;;;12.93;4.57;;;;;;;23.83;47.01;99184.44;124841;1099;104255;-77
2023/10/20 11:34:23;;;;;;;13.67;5.00;;;;;;;23.82;46.85;99171.97;125037;1099;104169;-79
2023/10/20 11:36:56;;;;;;;10.90;4.72;;;;;;;23.78;46.74;99173.02;124674;1099;104270;-77
2023/10/20 11:39:28;;;;;;;14.30;4.63;;;;;;;23.71;46.51;99163.50;124786;1099;104192;-76
2023/10/20 11:42:17;;;;;;;12.57;4.73;;;;;;;23.62;46.59;99162.05;125126;1099;101900;-75
2023/10/20 11:44:48;;;;;;;;;;;;;;;23.49;46.74;99164.33;124602;1099;104217;-76
2023/10/20 11:47:21;;;;;;;9.73;4.10;;;;;;;23.48;46.45;99175.96;124750;1099;104264;-77
2023/10/20 11:49:54;;;;;;;11.30;4.40;;;;;;;23.43;46.44;99168.11;124829;1099;104288;-77
2023/10/20 11:52:28;;;;;;;12.27;4.40;;;;;;;23.40;46.30;99173.58;125088;1099;104163;-79
2023/10/20 11:54:57;;;;;;;;;;;;;;;23.39;46.72;99165.60;125709;1099;101927;-78
2023/10/20 11:57:31;;;;;;;11.13;4.53;;;;;;;23.38;46.06;99171.91;126225;1098;104021;-81
2023/10/20 12:00:07;;;;;;;10.67;4.20;;;;;;;23.39;46.15;99179.88;125272;1099;101985;-79
2023/10/20 12:02:45;;;;;;;11.73;4.57;;;;;;;23.43;45.94;99194.02;125229;1099;104179;-76
2023/10/20 12:05:16;;;;;;;10.50;5.07;;;;;;;23.45;46.05;99198.39;125353;1099;104217;-78
2023/10/20 12:07:49;;;;;;;15.10;4.63;;;;;;;23.47;45.91;99196.52;125515;1099;101901;-79
2023/10/20 12:10:27;;;;;;;12.40;4.73;;;;;;;23.48;45.64;99195.59;125130;1099;104089;-79
2023/10/20 12:13:02;;;;;;;13.43;5.00;;;;;;;23.47;45.90;99191.16;125245;1099;104239;-78
2023/10/20 12:15:33;;;;;;;13.83;4.40;;;;;;;23.46;45.30;99200.11;125117;1099;102466;-80